sensor_id;sensor_type;location;lat;lon;timestamp;P1;durP1;ratioP1;P2;durP2;ratioP2
49758;SDS011;35654;46.080;11.118;2023-02-28T00:00:20;15.43;;;7.10;;
49758;SDS011;35654;46.080;11.118;2023-02-28T00:02:48;14.27;;;6.95;;
49758;SDS011;35654;46.080;11.118;2023-02-28T00:05:17;14.45;;;7.00;;
49758;SDS011;35654;46.080;11.118;2023-02-28T00:07:45;14.20;;;6.68;;
49758;SDS011;35654;46.080;11.118;2023-02-28T00:10:14;15.10;;;6.60;;
49758;SDS011;35654;46.080;11.118;2023-02-28T00:12:47;14.18;;;7.45;;
49758;SDS011;35654;46.080;11.118;2023-02-28T00:15:15;15.68;;;7.85;;
49758;SDS011;35654;46.080;11.118;2023-02-28T00:17:42;16.08;;;7.97;;
49758;SDS011;35654;46.080;11.118;2023-02-28T00:22:38;12.82;;;7.25;;
49758;SDS011;35654;46.080;11.118;2023-02-28T00:25:06;13.00;;;7.03;;
49758;SDS011;35654;46.080;11.118;2023-02-28T00:27:35;17.58;;;7.43;;
49758;SDS011;35654;46.080;11.118;2023-02-28T00:30:03;13.90;;;6.60;;
49758;SDS011;35654;46.080;11.118;2023-02-28T00:32:30;13.63;;;6.22;;
49758;SDS011;35654;46.080;11.118;2023-02-28T00:37:24;14.35;;;6.15;;
49758;SDS011;35654;46.080;11.118;2023-02-28T00:39:50;16.63;;;7.13;;
49758;SDS011;35654;46.080;11.118;2023-02-28T00:42:17;17.40;;;7.43;;
49758;SDS011;35654;46.080;11.118;2023-02-28T00:44:44;12.30;;;6.70;;
49758;SDS011;35654;46.080;11.118;2023-02-28T00:47:11;12.00;;;6.80;;
49758;SDS011;35654;46.080;11.118;2023-02-28T00:49:37;13.90;;;6.93;;
49758;SDS011;35654;46.080;11.118;2023-02-28T00:52:03;12.68;;;6.78;;
49758;SDS011;35654;46.080;11.118;2023-02-28T00:54:31;14.23;;;7.35;;
49758;SDS011;35654;46.080;11.118;2023-02-28T00:56:58;13.35;;;7.00;;
49758;SDS011;35654;46.080;11.118;2023-02-28T01:01:51;16.10;;;6.93;;
49758;SDS011;35654;46.080;11.118;2023-02-28T01:06:44;12.85;;;6.55;;
49758;SDS011;35654;46.080;11.118;2023-02-28T01:09:11;14.02;;;7.10;;
49758;SDS011;35654;46.080;11.118;2023-02-28T01:11:38;14.88;;;7.28;;
49758;SDS011;35654;46.080;11.118;2023-02-28T01:14:06;14.45;;;7.18;;
49758;SDS011;35654;46.080;11.118;2023-02-28T01:16:33;15.57;;;7.15;;
49758;SDS011;35654;46.080;11.118;2023-02-28T01:18:59;13.15;;;6.85;;
49758;SDS011;35654;46.080;11.118;2023-02-28T01:21:26;14.10;;;7.15;;
49758;SDS011;35654;46.080;11.118;2023-02-28T01:26:22;14.00;;;7.22;;
49758;SDS011;35654;46.080;11.118;2023-02-28T01:28:49;13.85;;;7.50;;
49758;SDS011;35654;46.080;11.118;2023-02-28T01:31:17;16.85;;;7.85;;
49758;SDS011;35654;46.080;11.118;2023-02-28T01:33:45;15.77;;;7.45;;
49758;SDS011;35654;46.080;11.118;2023-02-28T01:36:16;14.93;;;7.70;;
49758;SDS011;35654;46.080;11.118;2023-02-28T01:38:45;12.80;;;7.05;;
49758;SDS011;35654;46.080;11.118;2023-02-28T01:41:23;13.95;;;7.32;;
49758;SDS011;35654;46.080;11.118;2023-02-28T01:43:54;16.98;;;7.95;;
49758;SDS011;35654;46.080;11.118;2023-02-28T01:46:24;13.55;;;6.97;;
49758;SDS011;35654;46.080;11.118;2023-02-28T01:51:37;14.40;;;6.72;;
49758;SDS011;35654;46.080;11.118;2023-02-28T01:54:24;14.38;;;7.45;;
49758;SDS011;35654;46.080;11.118;2023-02-28T01:57:14;12.90;;;6.57;;
49758;SDS011;35654;46.080;11.118;2023-02-28T01:59:56;15.50;;;6.97;;
49758;SDS011;35654;46.080;11.118;2023-02-28T02:02:26;14.43;;;6.97;;
49758;SDS011;35654;46.080;11.118;2023-02-28T02:05:14;15.32;;;7.03;;
49758;SDS011;35654;46.080;11.118;2023-02-28T02:07:48;14.27;;;6.90;;
49758;SDS011;35654;46.080;11.118;2023-02-28T02:10:41;12.05;;;6.47;;
49758;SDS011;35654;46.080;11.118;2023-02-28T02:18:57;14.02;;;6.85;;
49758;SDS011;35654;46.080;11.118;2023-02-28T02:36:06;15.32;;;7.57;;
49758;SDS011;35654;46.080;11.118;2023-02-28T02:41:53;14.02;;;7.15;;
49758;SDS011;35654;46.080;11.118;2023-02-28T02:44:27;14.02;;;7.68;;
49758;SDS011;35654;46.080;11.118;2023-02-28T02:47:06;14.45;;;7.25;;
49758;SDS011;35654;46.080;11.118;2023-02-28T02:49:36;14.80;;;8.07;;
49758;SDS011;35654;46.080;11.118;2023-02-28T02:52:07;15.68;;;8.02;;
49758;SDS011;35654;46.080;11.118;2023-02-28T02:54:39;18.83;;;7.95;;
49758;SDS011;35654;46.080;11.118;2023-02-28T02:57:13;13.95;;;7.85;;
49758;SDS011;35654;46.080;11.118;2023-02-28T02:59:46;13.10;;;7.75;;
49758;SDS011;35654;46.080;11.118;2023-02-28T03:02:20;16.38;;;8.07;;
49758;SDS011;35654;46.080;11.118;2023-02-28T03:04:52;16.10;;;7.85;;
49758;SDS011;35654;46.080;11.118;2023-02-28T03:07:26;14.48;;;7.20;;
49758;SDS011;35654;46.080;11.118;2023-02-28T03:09:54;16.15;;;7.97;;
49758;SDS011;35654;46.080;11.118;2023-02-28T03:12:23;20.50;;;7.80;;
49758;SDS011;35654;46.080;11.118;2023-02-28T03:23:19;15.75;;;7.55;;
49758;SDS011;35654;46.080;11.118;2023-02-28T03:26:06;16.92;;;8.00;;
49758;SDS011;35654;46.080;11.118;2023-02-28T03:28:47;19.33;;;7.78;;
49758;SDS011;35654;46.080;11.118;2023-02-28T03:34:18;17.42;;;8.35;;
49758;SDS011;35654;46.080;11.118;2023-02-28T03:36:50;15.70;;;8.02;;
49758;SDS011;35654;46.080;11.118;2023-02-28T03:39:25;15.23;;;8.00;;
49758;SDS011;35654;46.080;11.118;2023-02-28T03:41:58;17.98;;;8.35;;
49758;SDS011;35654;46.080;11.118;2023-02-28T03:44:40;13.77;;;7.80;;
49758;SDS011;35654;46.080;11.118;2023-02-28T03:47:11;13.73;;;7.88;;
49758;SDS011;35654;46.080;11.118;2023-02-28T03:50:24;16.92;;;8.10;;
49758;SDS011;35654;46.080;11.118;2023-02-28T03:52:34;13.93;;;7.35;;
49758;SDS011;35654;46.080;11.118;2023-02-28T03:55:06;18.45;;;8.68;;
49758;SDS011;35654;46.080;11.118;2023-02-28T04:00:37;15.45;;;8.40;;
49758;SDS011;35654;46.080;11.118;2023-02-28T04:03:09;15.57;;;7.47;;
49758;SDS011;35654;46.080;11.118;2023-02-28T04:05:58;16.80;;;8.20;;
49758;SDS011;35654;46.080;11.118;2023-02-28T04:08:24;17.75;;;8.32;;
49758;SDS011;35654;46.080;11.118;2023-02-28T04:11:36;15.02;;;8.07;;
49758;SDS011;35654;46.080;11.118;2023-02-28T04:13:53;14.82;;;8.13;;
49758;SDS011;35654;46.080;11.118;2023-02-28T04:16:20;14.73;;;8.02;;
49758;SDS011;35654;46.080;11.118;2023-02-28T04:18:46;15.82;;;8.05;;
49758;SDS011;35654;46.080;11.118;2023-02-28T04:21:13;15.27;;;8.10;;
49758;SDS011;35654;46.080;11.118;2023-02-28T04:23:40;17.25;;;8.23;;
49758;SDS011;35654;46.080;11.118;2023-02-28T04:26:07;13.90;;;7.72;;
49758;SDS011;35654;46.080;11.118;2023-02-28T04:28:34;16.17;;;8.00;;
49758;SDS011;35654;46.080;11.118;2023-02-28T04:31:01;15.63;;;8.05;;
49758;SDS011;35654;46.080;11.118;2023-02-28T04:33:31;13.05;;;7.78;;
49758;SDS011;35654;46.080;11.118;2023-02-28T04:36:05;16.65;;;8.38;;
49758;SDS011;35654;46.080;11.118;2023-02-28T04:38:35;20.30;;;9.20;;
49758;SDS011;35654;46.080;11.118;2023-02-28T04:41:03;17.08;;;8.90;;
49758;SDS011;35654;46.080;11.118;2023-02-28T04:43:30;17.83;;;8.57;;
49758;SDS011;35654;46.080;11.118;2023-02-28T04:46:00;18.50;;;9.35;;
49758;SDS011;35654;46.080;11.118;2023-02-28T04:48:28;17.50;;;9.07;;
49758;SDS011;35654;46.080;11.118;2023-02-28T04:51:07;17.77;;;8.73;;
49758;SDS011;35654;46.080;11.118;2023-02-28T04:53:35;20.95;;;9.20;;
49758;SDS011;35654;46.080;11.118;2023-02-28T04:56:03;15.68;;;8.93;;
49758;SDS011;35654;46.080;11.118;2023-02-28T04:58:32;18.17;;;9.48;;
49758;SDS011;35654;46.080;11.118;2023-02-28T05:01:06;18.88;;;9.82;;
49758;SDS011;35654;46.080;11.118;2023-02-28T05:03:42;22.13;;;11.00;;
49758;SDS011;35654;46.080;11.118;2023-02-28T05:06:10;20.95;;;9.77;;
49758;SDS011;35654;46.080;11.118;2023-02-28T05:08:38;19.48;;;10.18;;
49758;SDS011;35654;46.080;11.118;2023-02-28T05:11:06;21.40;;;10.32;;
49758;SDS011;35654;46.080;11.118;2023-02-28T05:13:38;18.65;;;9.93;;
49758;SDS011;35654;46.080;11.118;2023-02-28T05:16:04;22.85;;;10.35;;
49758;SDS011;35654;46.080;11.118;2023-02-28T05:18:31;20.30;;;9.73;;
49758;SDS011;35654;46.080;11.118;2023-02-28T05:20:59;19.77;;;10.65;;
49758;SDS011;35654;46.080;11.118;2023-02-28T05:23:28;18.45;;;10.00;;
49758;SDS011;35654;46.080;11.118;2023-02-28T05:28:21;38.70;;;17.05;;
49758;SDS011;35654;46.080;11.118;2023-02-28T05:30:48;20.70;;;9.65;;
49758;SDS011;35654;46.080;11.118;2023-02-28T05:33:16;18.38;;;9.52;;
49758;SDS011;35654;46.080;11.118;2023-02-28T05:35:42;18.63;;;10.02;;
49758;SDS011;35654;46.080;11.118;2023-02-28T05:38:09;19.02;;;9.13;;
49758;SDS011;35654;46.080;11.118;2023-02-28T05:40:37;22.92;;;9.95;;
49758;SDS011;35654;46.080;11.118;2023-02-28T05:43:04;21.10;;;10.07;;
49758;SDS011;35654;46.080;11.118;2023-02-28T05:45:31;21.83;;;9.63;;
49758;SDS011;35654;46.080;11.118;2023-02-28T05:47:58;31.40;;;15.35;;
49758;SDS011;35654;46.080;11.118;2023-02-28T05:50:25;21.70;;;10.43;;
49758;SDS011;35654;46.080;11.118;2023-02-28T05:52:52;21.50;;;10.30;;
49758;SDS011;35654;46.080;11.118;2023-02-28T05:55:18;22.55;;;10.25;;
49758;SDS011;35654;46.080;11.118;2023-02-28T05:57:45;20.85;;;9.70;;
49758;SDS011;35654;46.080;11.118;2023-02-28T06:00:11;25.17;;;10.13;;
49758;SDS011;35654;46.080;11.118;2023-02-28T06:02:38;19.83;;;10.02;;
49758;SDS011;35654;46.080;11.118;2023-02-28T06:05:06;20.23;;;11.18;;
49758;SDS011;35654;46.080;11.118;2023-02-28T06:07:37;21.77;;;10.27;;
49758;SDS011;35654;46.080;11.118;2023-02-28T06:10:03;20.13;;;10.43;;
49758;SDS011;35654;46.080;11.118;2023-02-28T06:12:29;24.87;;;10.63;;
49758;SDS011;35654;46.080;11.118;2023-02-28T06:14:55;20.50;;;9.80;;
49758;SDS011;35654;46.080;11.118;2023-02-28T06:19:47;25.45;;;10.10;;
49758;SDS011;35654;46.080;11.118;2023-02-28T06:22:13;18.27;;;9.65;;
49758;SDS011;35654;46.080;11.118;2023-02-28T06:24:38;18.43;;;9.53;;
49758;SDS011;35654;46.080;11.118;2023-02-28T06:27:04;23.03;;;10.17;;
49758;SDS011;35654;46.080;11.118;2023-02-28T06:29:33;25.70;;;10.67;;
49758;SDS011;35654;46.080;11.118;2023-02-28T06:32:00;22.92;;;11.02;;
49758;SDS011;35654;46.080;11.118;2023-02-28T06:34:26;22.30;;;10.98;;
49758;SDS011;35654;46.080;11.118;2023-02-28T06:36:51;18.97;;;9.77;;
49758;SDS011;35654;46.080;11.118;2023-02-28T06:39:17;21.20;;;9.73;;
49758;SDS011;35654;46.080;11.118;2023-02-28T06:41:43;18.83;;;8.93;;
49758;SDS011;35654;46.080;11.118;2023-02-28T06:44:14;19.90;;;9.55;;
49758;SDS011;35654;46.080;11.118;2023-02-28T06:46:42;24.70;;;9.80;;
49758;SDS011;35654;46.080;11.118;2023-02-28T06:49:09;20.40;;;9.05;;
49758;SDS011;35654;46.080;11.118;2023-02-28T06:51:36;29.75;;;9.57;;
49758;SDS011;35654;46.080;11.118;2023-02-28T06:54:02;26.13;;;11.63;;
49758;SDS011;35654;46.080;11.118;2023-02-28T06:56:28;22.10;;;9.77;;
49758;SDS011;35654;46.080;11.118;2023-02-28T06:58:53;22.27;;;10.30;;
49758;SDS011;35654;46.080;11.118;2023-02-28T07:01:19;24.93;;;9.80;;
49758;SDS011;35654;46.080;11.118;2023-02-28T07:03:45;23.53;;;10.37;;
49758;SDS011;35654;46.080;11.118;2023-02-28T07:06:11;21.67;;;9.82;;
49758;SDS011;35654;46.080;11.118;2023-02-28T07:08:37;17.30;;;9.20;;
49758;SDS011;35654;46.080;11.118;2023-02-28T07:11:02;20.00;;;9.33;;
49758;SDS011;35654;46.080;11.118;2023-02-28T07:13:28;20.63;;;10.50;;
49758;SDS011;35654;46.080;11.118;2023-02-28T07:16:01;24.67;;;10.03;;
49758;SDS011;35654;46.080;11.118;2023-02-28T07:18:31;17.83;;;9.13;;
49758;SDS011;35654;46.080;11.118;2023-02-28T07:20:57;17.97;;;9.93;;
49758;SDS011;35654;46.080;11.118;2023-02-28T07:23:22;23.50;;;10.90;;
49758;SDS011;35654;46.080;11.118;2023-02-28T07:25:49;22.87;;;10.90;;
49758;SDS011;35654;46.080;11.118;2023-02-28T07:30:40;30.38;;;10.88;;
49758;SDS011;35654;46.080;11.118;2023-02-28T07:33:06;18.88;;;10.48;;
49758;SDS011;35654;46.080;11.118;2023-02-28T07:35:32;24.67;;;11.23;;
49758;SDS011;35654;46.080;11.118;2023-02-28T07:37:58;23.43;;;10.73;;
49758;SDS011;35654;46.080;11.118;2023-02-28T07:40:24;21.48;;;10.27;;
49758;SDS011;35654;46.080;11.118;2023-02-28T07:42:49;27.87;;;11.80;;
49758;SDS011;35654;46.080;11.118;2023-02-28T07:45:15;22.13;;;10.73;;
49758;SDS011;35654;46.080;11.118;2023-02-28T07:47:41;24.93;;;10.97;;
49758;SDS011;35654;46.080;11.118;2023-02-28T07:52:34;25.58;;;10.00;;
49758;SDS011;35654;46.080;11.118;2023-02-28T07:54:59;18.70;;;9.43;;
49758;SDS011;35654;46.080;11.118;2023-02-28T07:57:24;20.27;;;10.90;;
49758;SDS011;35654;46.080;11.118;2023-02-28T07:59:50;24.40;;;11.13;;
49758;SDS011;35654;46.080;11.118;2023-02-28T08:02:16;22.70;;;10.37;;
49758;SDS011;35654;46.080;11.118;2023-02-28T08:04:43;25.25;;;11.05;;
49758;SDS011;35654;46.080;11.118;2023-02-28T08:07:09;22.38;;;11.65;;
49758;SDS011;35654;46.080;11.118;2023-02-28T08:09:38;21.38;;;10.23;;
49758;SDS011;35654;46.080;11.118;2023-02-28T08:12:07;23.63;;;12.13;;
49758;SDS011;35654;46.080;11.118;2023-02-28T08:14:33;23.43;;;10.93;;
49758;SDS011;35654;46.080;11.118;2023-02-28T08:16:59;20.33;;;10.95;;
49758;SDS011;35654;46.080;11.118;2023-02-28T08:19:24;20.80;;;10.20;;
49758;SDS011;35654;46.080;11.118;2023-02-28T08:21:50;21.50;;;10.03;;
49758;SDS011;35654;46.080;11.118;2023-02-28T08:24:15;22.20;;;10.20;;
49758;SDS011;35654;46.080;11.118;2023-02-28T08:26:41;25.00;;;10.97;;
49758;SDS011;35654;46.080;11.118;2023-02-28T08:29:06;21.20;;;10.47;;
49758;SDS011;35654;46.080;11.118;2023-02-28T08:31:31;20.43;;;10.13;;
49758;SDS011;35654;46.080;11.118;2023-02-28T08:33:57;18.53;;;10.23;;
49758;SDS011;35654;46.080;11.118;2023-02-28T08:38:50;23.38;;;10.45;;
49758;SDS011;35654;46.080;11.118;2023-02-28T08:41:15;20.47;;;9.60;;
49758;SDS011;35654;46.080;11.118;2023-02-28T08:43:41;18.70;;;9.57;;
49758;SDS011;35654;46.080;11.118;2023-02-28T08:46:06;23.90;;;11.03;;
49758;SDS011;35654;46.080;11.118;2023-02-28T08:48:33;22.48;;;10.65;;
49758;SDS011;35654;46.080;11.118;2023-02-28T08:51:04;26.95;;;11.50;;
49758;SDS011;35654;46.080;11.118;2023-02-28T08:53:32;22.52;;;10.70;;
49758;SDS011;35654;46.080;11.118;2023-02-28T08:58:30;17.75;;;9.77;;
49758;SDS011;35654;46.080;11.118;2023-02-28T09:00:56;23.70;;;10.67;;
49758;SDS011;35654;46.080;11.118;2023-02-28T09:03:22;27.90;;;11.47;;
49758;SDS011;35654;46.080;11.118;2023-02-28T09:05:51;19.83;;;10.65;;
49758;SDS011;35654;46.080;11.118;2023-02-28T09:08:21;18.60;;;10.18;;
49758;SDS011;35654;46.080;11.118;2023-02-28T09:10:47;19.45;;;10.18;;
49758;SDS011;35654;46.080;11.118;2023-02-28T09:13:12;18.57;;;9.63;;
49758;SDS011;35654;46.080;11.118;2023-02-28T09:15:38;23.43;;;10.40;;
49758;SDS011;35654;46.080;11.118;2023-02-28T09:18:04;21.67;;;10.50;;
49758;SDS011;35654;46.080;11.118;2023-02-28T09:20:29;18.83;;;9.80;;
49758;SDS011;35654;46.080;11.118;2023-02-28T09:22:54;29.27;;;11.17;;
49758;SDS011;35654;46.080;11.118;2023-02-28T09:25:20;22.47;;;10.70;;
49758;SDS011;35654;46.080;11.118;2023-02-28T09:27:45;18.30;;;10.53;;
49758;SDS011;35654;46.080;11.118;2023-02-28T09:30:11;22.60;;;10.40;;
49758;SDS011;35654;46.080;11.118;2023-02-28T09:32:37;19.55;;;10.27;;
49758;SDS011;35654;46.080;11.118;2023-02-28T09:35:03;28.83;;;11.67;;
49758;SDS011;35654;46.080;11.118;2023-02-28T09:37:29;23.38;;;10.68;;
49758;SDS011;35654;46.080;11.118;2023-02-28T09:42:21;18.50;;;9.65;;
49758;SDS011;35654;46.080;11.118;2023-02-28T09:44:54;19.52;;;8.90;;
49758;SDS011;35654;46.080;11.118;2023-02-28T09:47:29;19.25;;;9.90;;
49758;SDS011;35654;46.080;11.118;2023-02-28T09:52:29;15.73;;;9.18;;
49758;SDS011;35654;46.080;11.118;2023-02-28T09:54:58;18.58;;;9.88;;
49758;SDS011;35654;46.080;11.118;2023-02-28T09:57:37;19.20;;;10.00;;
49758;SDS011;35654;46.080;11.118;2023-02-28T10:02:46;20.00;;;11.20;;
49758;SDS011;35654;46.080;11.118;2023-02-28T10:05:39;22.27;;;9.75;;
49758;SDS011;35654;46.080;11.118;2023-02-28T10:08:13;19.27;;;10.18;;
49758;SDS011;35654;46.080;11.118;2023-02-28T10:10:42;17.65;;;9.27;;
49758;SDS011;35654;46.080;11.118;2023-02-28T10:15:39;16.73;;;9.57;;
49758;SDS011;35654;46.080;11.118;2023-02-28T10:18:06;14.75;;;8.95;;
49758;SDS011;35654;46.080;11.118;2023-02-28T10:20:39;17.63;;;8.57;;
49758;SDS011;35654;46.080;11.118;2023-02-28T10:25:35;23.92;;;9.27;;
49758;SDS011;35654;46.080;11.118;2023-02-28T10:28:12;16.75;;;8.55;;
49758;SDS011;35654;46.080;11.118;2023-02-28T10:30:42;14.60;;;8.38;;
49758;SDS011;35654;46.080;11.118;2023-02-28T10:33:32;17.83;;;8.77;;
49758;SDS011;35654;46.080;11.118;2023-02-28T10:35:59;10.15;;;6.63;;
49758;SDS011;35654;46.080;11.118;2023-02-28T10:38:27;15.85;;;8.38;;
49758;SDS011;35654;46.080;11.118;2023-02-28T10:41:03;14.15;;;8.73;;
49758;SDS011;35654;46.080;11.118;2023-02-28T10:43:42;14.13;;;8.25;;
49758;SDS011;35654;46.080;11.118;2023-02-28T10:51:08;14.85;;;8.70;;
49758;SDS011;35654;46.080;11.118;2023-02-28T10:53:45;14.15;;;8.48;;
49758;SDS011;35654;46.080;11.118;2023-02-28T10:56:17;14.88;;;7.95;;
49758;SDS011;35654;46.080;11.118;2023-02-28T11:01:20;12.55;;;8.15;;
49758;SDS011;35654;46.080;11.118;2023-02-28T11:03:49;12.18;;;8.55;;
49758;SDS011;35654;46.080;11.118;2023-02-28T11:06:17;13.85;;;8.57;;
49758;SDS011;35654;46.080;11.118;2023-02-28T11:08:50;11.38;;;7.93;;
49758;SDS011;35654;46.080;11.118;2023-02-28T11:11:18;13.18;;;8.48;;
49758;SDS011;35654;46.080;11.118;2023-02-28T11:13:46;11.85;;;8.50;;
49758;SDS011;35654;46.080;11.118;2023-02-28T11:16:14;14.57;;;8.75;;
49758;SDS011;35654;46.080;11.118;2023-02-28T11:21:06;14.70;;;8.38;;
49758;SDS011;35654;46.080;11.118;2023-02-28T11:23:35;14.43;;;8.18;;
49758;SDS011;35654;46.080;11.118;2023-02-28T11:26:02;12.82;;;8.63;;
49758;SDS011;35654;46.080;11.118;2023-02-28T11:31:09;18.13;;;9.20;;
49758;SDS011;35654;46.080;11.118;2023-02-28T11:36:21;11.70;;;8.40;;
49758;SDS011;35654;46.080;11.118;2023-02-28T11:38:55;14.40;;;7.97;;
49758;SDS011;35654;46.080;11.118;2023-02-28T11:46:52;9.07;;;7.13;;
49758;SDS011;35654;46.080;11.118;2023-02-28T11:49:30;10.73;;;7.10;;
49758;SDS011;35654;46.080;11.118;2023-02-28T11:54:55;12.93;;;6.75;;
49758;SDS011;35654;46.080;11.118;2023-02-28T12:03:14;11.70;;;7.68;;
49758;SDS011;35654;46.080;11.118;2023-02-28T12:08:52;11.43;;;7.30;;
49758;SDS011;35654;46.080;11.118;2023-02-28T12:16:43;14.77;;;7.50;;
49758;SDS011;35654;46.080;11.118;2023-02-28T12:28:01;11.93;;;6.32;;
49758;SDS011;35654;46.080;11.118;2023-02-28T12:30:29;11.32;;;6.18;;
49758;SDS011;35654;46.080;11.118;2023-02-28T12:33:04;9.70;;;6.38;;
49758;SDS011;35654;46.080;11.118;2023-02-28T12:35:51;9.73;;;5.63;;
49758;SDS011;35654;46.080;11.118;2023-02-28T12:40:52;6.82;;;5.45;;
49758;SDS011;35654;46.080;11.118;2023-02-28T12:43:25;12.23;;;6.15;;
49758;SDS011;35654;46.080;11.118;2023-02-28T12:45:57;8.65;;;5.28;;
49758;SDS011;35654;46.080;11.118;2023-02-28T12:48:29;6.15;;;4.82;;
49758;SDS011;35654;46.080;11.118;2023-02-28T12:51:02;15.25;;;4.90;;
49758;SDS011;35654;46.080;11.118;2023-02-28T12:53:47;8.10;;;5.10;;
49758;SDS011;35654;46.080;11.118;2023-02-28T12:58:51;10.70;;;5.55;;
49758;SDS011;35654;46.080;11.118;2023-02-28T13:07:18;7.45;;;4.70;;
49758;SDS011;35654;46.080;11.118;2023-02-28T13:09:58;6.82;;;4.82;;
49758;SDS011;35654;46.080;11.118;2023-02-28T13:12:25;7.70;;;5.05;;
49758;SDS011;35654;46.080;11.118;2023-02-28T13:15:00;7.80;;;4.50;;
49758;SDS011;35654;46.080;11.118;2023-02-28T13:17:37;7.72;;;5.00;;
49758;SDS011;35654;46.080;11.118;2023-02-28T13:20:14;12.05;;;5.30;;
49758;SDS011;35654;46.080;11.118;2023-02-28T13:22:43;6.85;;;4.40;;
49758;SDS011;35654;46.080;11.118;2023-02-28T13:27:48;4.75;;;3.30;;
49758;SDS011;35654;46.080;11.118;2023-02-28T13:38:39;5.93;;;3.97;;
49758;SDS011;35654;46.080;11.118;2023-02-28T13:46:31;7.72;;;3.65;;
49758;SDS011;35654;46.080;11.118;2023-02-28T13:54:52;6.32;;;3.95;;
49758;SDS011;35654;46.080;11.118;2023-02-28T13:57:51;7.10;;;4.63;;
49758;SDS011;35654;46.080;11.118;2023-02-28T14:01:02;6.57;;;4.97;;
49758;SDS011;35654;46.080;11.118;2023-02-28T14:03:58;25.80;;;11.88;;
49758;SDS011;35654;46.080;11.118;2023-02-28T14:06:31;10.27;;;6.35;;
49758;SDS011;35654;46.080;11.118;2023-02-28T14:09:03;13.20;;;7.07;;
49758;SDS011;35654;46.080;11.118;2023-02-28T14:11:39;10.00;;;7.72;;
49758;SDS011;35654;46.080;11.118;2023-02-28T14:14:06;15.65;;;7.22;;
49758;SDS011;35654;46.080;11.118;2023-02-28T14:19:22;10.52;;;7.68;;
49758;SDS011;35654;46.080;11.118;2023-02-28T14:22:01;13.68;;;8.68;;
49758;SDS011;35654;46.080;11.118;2023-02-28T14:38:46;14.10;;;10.15;;
49758;SDS011;35654;46.080;11.118;2023-02-28T14:41:21;18.95;;;11.18;;
49758;SDS011;35654;46.080;11.118;2023-02-28T14:43:51;19.58;;;11.52;;
49758;SDS011;35654;46.080;11.118;2023-02-28T14:46:22;20.10;;;12.30;;
49758;SDS011;35654;46.080;11.118;2023-02-28T14:48:51;19.75;;;12.55;;
49758;SDS011;35654;46.080;11.118;2023-02-28T14:51:18;19.27;;;12.98;;
49758;SDS011;35654;46.080;11.118;2023-02-28T14:53:46;22.08;;;12.85;;
49758;SDS011;35654;46.080;11.118;2023-02-28T14:56:22;20.38;;;11.98;;
49758;SDS011;35654;46.080;11.118;2023-02-28T14:58:59;25.38;;;13.25;;
49758;SDS011;35654;46.080;11.118;2023-02-28T15:01:25;23.73;;;14.37;;
49758;SDS011;35654;46.080;11.118;2023-02-28T15:03:59;26.35;;;13.55;;
49758;SDS011;35654;46.080;11.118;2023-02-28T15:06:28;27.90;;;14.15;;
49758;SDS011;35654;46.080;11.118;2023-02-28T15:09:06;26.77;;;14.07;;
49758;SDS011;35654;46.080;11.118;2023-02-28T15:11:40;23.58;;;13.95;;
49758;SDS011;35654;46.080;11.118;2023-02-28T15:14:06;31.02;;;13.88;;
49758;SDS011;35654;46.080;11.118;2023-02-28T15:16:39;27.33;;;14.90;;
49758;SDS011;35654;46.080;11.118;2023-02-28T15:21:48;29.98;;;14.30;;
49758;SDS011;35654;46.080;11.118;2023-02-28T15:24:18;25.92;;;14.45;;
49758;SDS011;35654;46.080;11.118;2023-02-28T15:26:56;31.40;;;16.13;;
49758;SDS011;35654;46.080;11.118;2023-02-28T15:29:23;28.55;;;14.77;;
49758;SDS011;35654;46.080;11.118;2023-02-28T15:31:56;25.60;;;14.90;;
49758;SDS011;35654;46.080;11.118;2023-02-28T15:34:24;27.52;;;14.85;;
49758;SDS011;35654;46.080;11.118;2023-02-28T15:37:00;30.55;;;15.63;;
49758;SDS011;35654;46.080;11.118;2023-02-28T15:39:27;26.07;;;15.23;;
49758;SDS011;35654;46.080;11.118;2023-02-28T15:42:13;27.08;;;14.43;;
49758;SDS011;35654;46.080;11.118;2023-02-28T15:44:44;27.77;;;14.65;;
49758;SDS011;35654;46.080;11.118;2023-02-28T15:47:17;25.60;;;14.60;;
49758;SDS011;35654;46.080;11.118;2023-02-28T15:49:52;25.80;;;13.93;;
49758;SDS011;35654;46.080;11.118;2023-02-28T15:54:59;26.73;;;14.27;;
49758;SDS011;35654;46.080;11.118;2023-02-28T15:57:54;27.38;;;14.68;;
49758;SDS011;35654;46.080;11.118;2023-02-28T16:00:25;28.38;;;15.20;;
49758;SDS011;35654;46.080;11.118;2023-02-28T16:02:51;27.25;;;14.43;;
49758;SDS011;35654;46.080;11.118;2023-02-28T16:05:18;30.37;;;14.47;;
49758;SDS011;35654;46.080;11.118;2023-02-28T16:07:45;33.00;;;16.05;;
49758;SDS011;35654;46.080;11.118;2023-02-28T16:10:13;27.10;;;14.23;;
49758;SDS011;35654;46.080;11.118;2023-02-28T16:12:39;29.92;;;15.32;;
49758;SDS011;35654;46.080;11.118;2023-02-28T16:15:07;35.83;;;17.05;;
49758;SDS011;35654;46.080;11.118;2023-02-28T16:17:41;37.58;;;16.83;;
49758;SDS011;35654;46.080;11.118;2023-02-28T16:20:18;37.87;;;15.63;;
49758;SDS011;35654;46.080;11.118;2023-02-28T16:22:51;26.33;;;14.82;;
49758;SDS011;35654;46.080;11.118;2023-02-28T16:25:18;34.57;;;15.93;;
49758;SDS011;35654;46.080;11.118;2023-02-28T16:27:49;28.45;;;15.35;;
49758;SDS011;35654;46.080;11.118;2023-02-28T16:30:22;26.02;;;13.88;;
49758;SDS011;35654;46.080;11.118;2023-02-28T16:32:49;39.05;;;17.02;;
49758;SDS011;35654;46.080;11.118;2023-02-28T16:37:43;29.45;;;14.77;;
49758;SDS011;35654;46.080;11.118;2023-02-28T16:40:13;33.88;;;15.50;;
49758;SDS011;35654;46.080;11.118;2023-02-28T16:42:45;28.63;;;15.07;;
49758;SDS011;35654;46.080;11.118;2023-02-28T16:45:26;31.02;;;15.20;;
49758;SDS011;35654;46.080;11.118;2023-02-28T16:47:53;30.10;;;16.20;;
49758;SDS011;35654;46.080;11.118;2023-02-28T16:52:49;36.85;;;16.13;;
49758;SDS011;35654;46.080;11.118;2023-02-28T16:55:17;30.52;;;14.98;;
49758;SDS011;35654;46.080;11.118;2023-02-28T16:57:53;30.30;;;16.40;;
49758;SDS011;35654;46.080;11.118;2023-02-28T17:00:21;31.75;;;15.68;;
49758;SDS011;35654;46.080;11.118;2023-02-28T17:02:46;32.10;;;16.33;;
49758;SDS011;35654;46.080;11.118;2023-02-28T17:05:12;32.67;;;16.23;;
49758;SDS011;35654;46.080;11.118;2023-02-28T17:07:40;33.30;;;16.75;;
49758;SDS011;35654;46.080;11.118;2023-02-28T17:10:14;31.45;;;14.95;;
49758;SDS011;35654;46.080;11.118;2023-02-28T17:12:42;34.92;;;16.50;;
49758;SDS011;35654;46.080;11.118;2023-02-28T17:15:12;32.00;;;16.73;;
49758;SDS011;35654;46.080;11.118;2023-02-28T17:17:39;34.97;;;16.30;;
49758;SDS011;35654;46.080;11.118;2023-02-28T17:20:05;48.03;;;22.67;;
49758;SDS011;35654;46.080;11.118;2023-02-28T17:22:32;30.63;;;15.57;;
49758;SDS011;35654;46.080;11.118;2023-02-28T17:24:57;34.27;;;15.63;;
49758;SDS011;35654;46.080;11.118;2023-02-28T17:27:23;30.13;;;15.43;;
49758;SDS011;35654;46.080;11.118;2023-02-28T17:29:49;34.50;;;16.67;;
49758;SDS011;35654;46.080;11.118;2023-02-28T17:32:15;31.50;;;15.73;;
49758;SDS011;35654;46.080;11.118;2023-02-28T17:34:41;35.93;;;15.57;;
49758;SDS011;35654;46.080;11.118;2023-02-28T17:37:08;33.17;;;16.70;;
49758;SDS011;35654;46.080;11.118;2023-02-28T17:39:34;33.50;;;16.67;;